Tiempo atmosférico en la estación meteorológica de Colunga, Asturias (35 m.)



Fecha
DESCASC
Temp. máxima en grados centígrados (hora)
DESCASC
Temp. mínima en grados centígrados (hora)
DESCASC
Temp. media en grados centígrados
DESCASC
Racha de viento máxima en m/sg (hora)
DESCASC
Velocidad máxima media en intervalos de 10 minutos(hora)
DESCASC
Precipitaciones diarias en mm
DESCASC
Precipitaciones de 00:00 a 06:00 en mm
DESCASC
Precipitaciones de 06:00 a 12:00 en mm
DESCASC
Precipitaciones de 12:00 a 18:00 en mm
DESCASC
Precipitaciones de 18:00 a 24:00 en mm
DESCASC
16-06-2019 19.1 (16:40) 10.3 (05:40) 14.7 7.22 (13:30) 4.44 (13:40) 0 0 0 0 0
15-06-2019 18.4 (14:40) 11 (07:00) 14.7 6.67 (12:00) 4.72 (12:00) 0 0 0 0 0
14-06-2019 16.6 (11:50) 9.3 (06:10) 13 5 (11:10) 2.78 (10:50) 0 0 0 0 0
13-06-2019 15.1 (11:00) 9.2 (00:00) 12.2 4.72 (14:20) 2.78 (05:30) 0 0 0 0 0
12-06-2019 17.9 (16:50) 11.1 (00:00) 14.5 10.56 (12:10) 5.28 (12:10) 0.8 0.8 0 0 0
11-06-2019 16.8 (14:40) 10.3 (00:00) 13.5 9.72 (15:10) 4.72 (16:10) 12.6 5.6 5.4 0.2 1.4
10-06-2019 16.4 (14:50) 9 (00:00) 12.7 6.39 (14:20) 3.89 (14:20) 0.4 0 0 0 0.4
09-06-2019 14.8 (11:10) 12 (00:00) 13.4 6.67 (05:30) 3.61 (05:40) 1.6 0.2 0.6 0.8 0
08-06-2019 17.1 (12:50) 9.7 (00:00) 13.4 8.33 (14:10) 5 (16:30) 0 0 0 0 0
07-06-2019 18.9 (14:00) 10.2 (00:00) 14.5 18.06 (09:50) 8.89 (06:40) 0.2 0 0.2 0 0
06-06-2019 18.8 (20:30) 8.1 (00:00) 13.4 10.28 (13:30) 6.67 (14:20) 2 0 0 0 2
05-06-2019 16.7 (18:50) 10.7 (00:00) 13.7 10.28 (12:00) 4.72 (12:00) 4.4 0.2 0.2 3 1
04-06-2019 19.5 (11:30) 13.1 (00:00) 16.3 8.61 (13:40) 3.89 (12:40) 6 0 0 3.8 2.2
03-06-2019 20.1 (16:00) 15.3 (00:00) 17.7 4.72 (17:10) 2.78 (17:10) 0.2 0 0.2 0 0
02-06-2019 20.9 (11:10) 12.3 (00:00) 16.6 5.28 (14:40) 3.33 (14:30) 0 0 0 0 0
01-06-2019 25.8 (17:50) 10.4 (00:00) 18.1 5.56 (14:00) 3.89 (14:30) 0 0 0 0 0
31-05-2019 20.2 (17:20) 9.9 (00:00) 15.1 5.83 (16:40) 3.61 (16:30) 0 0 0 0 0
30-05-2019 19.1 (14:30) 9.5 (00:00) 14.3 8.61 (20:40) 5 (19:30) 0 0 0 0 0
29-05-2019 18 (17:20) 11.8 (00:00) 14.9 7.5 (21:40) 4.72 (21:30) 0 0 0 0 0
28-05-2019 18 (15:30) 10.3 (00:00) 14.2 6.94 (15:00) 3.06 (08:10) 0 0 0 0 0
27-05-2019 16 (13:20) 12.3 (00:00) 14.2 4.44 (12:50) 2.5 (07:40) 3 0 1.6 1.4 0
26-05-2019 18.4 (15:50) 10.6 (00:00) 14.5 5.83 (15:10) 3.33 (16:10) 0 0 0 0 0
25-05-2019 17 (17:10) 12 (00:00) 14.5 5 (14:20) 3.06 (14:10) 0 0 0 0 0
24-05-2019 18.5 (14:20) 12.1 (00:00) 15.3 7.5 (15:20) 4.44 (15:40) 0.2 0 0 0 0.2
23-05-2019 18.8 (12:10) 11.6 (00:00) 15.2 7.5 (21:00) 3.89 (15:00) 0 0 0 0 0
22-05-2019 17.4 (17:50) 8.3 (00:00) 12.8 5 (01:30) 3.33 (14:10) 0 0 0 0 0

Gráficas

Temp. máximas Temp. mínimas Temp. medias Precipitaciones Rachas de viento máximas Velocidades máximas media en intervalos de 10 minutos

Datos horarios

Fecha y hora oficial Temperatura (ºC) Velocidad del viento (km/h) Dirección del viento Racha (km/h) Dirección de racha Precipitación (mm) Presión (hPa) Tendencia (hPa) Humedad (%)
2019-06-20 23:00:00 14.6 0 Calma 6 Sudoeste 0 -- -- 99
2019-06-20 22:00:00 14.8 3 Sur 9 Oeste 0.8 -- -- 98
2019-06-20 21:00:00 15 3 Oeste 11 Nordeste 0.8 -- -- 97
2019-06-20 20:00:00 15.4 3 Sur 14 Norte 0.4 -- -- 95
2019-06-20 19:00:00 16.6 5 Nordeste 13 Nordeste 0 -- -- 91
2019-06-20 18:00:00 16.7 4 Este 15 Este 0 -- -- 92
2019-06-20 17:00:00 16.8 7 Nordeste 10 Nordeste 0 -- -- 92
2019-06-20 16:00:00 16.8 5 Nordeste 11 Nordeste 0 -- -- 92
2019-06-20 15:00:00 17.1 6 Nordeste 9 Nordeste 0 -- -- 94
2019-06-20 14:00:00 16.5 4 Nordeste 9 Nordeste 0 -- -- 94
2019-06-20 13:00:00 16.8 6 Este 9 Este 0 -- -- 95
2019-06-20 12:00:00 16.3 0 Calma 7 Sudeste 0 -- -- 99
2019-06-20 11:00:00 15.5 2 Sur 6 Este 0.2 -- -- 100
2019-06-20 10:00:00 15.4 2 Sudeste 3 Sudeste 0.2 -- -- 100
2019-06-20 09:00:00 15 0 Calma 2 Sudoeste 0 -- -- 100
2019-06-20 08:00:00 14.7 0 Calma 4 Sudoeste 0 -- -- 100
2019-06-20 07:00:00 14.7 3 Oeste 4 Oeste 0.4 -- -- 100
2019-06-20 06:00:00 14.8 2 Sudoeste 8 Sudoeste 0.2 -- -- 99
2019-06-20 05:00:00 15.1 4 Sudoeste 6 Sudoeste 0.4 -- -- 99
2019-06-20 04:00:00 15.2 3 Oeste 6 Noroeste 0 -- -- 98
2019-06-20 03:00:00 15.5 0 Calma 6 Noroeste 0 -- -- 98
2019-06-20 02:00:00 15.4 4 Oeste 7 Oeste 0 -- -- 98
2019-06-20 01:00:00 15.4 4 Oeste 9 Oeste 0 -- -- 98
2019-06-20 00:00:00 15.3 5 Oeste 9 Sudoeste 0.2 -- -- 97
2019-06-19 23:00:00 15.7 5 Sudoeste 12 Oeste 0.2 -- -- 95
2019-06-19 22:00:00 16.5 5 Oeste 13 Oeste 0 -- -- 90
2019-06-19 21:00:00 17 3 Oeste 8 Noroeste 0 -- -- 89
2019-06-19 20:00:00 17.4 2 Este 10 Noroeste 0 -- -- 87
2019-06-19 19:00:00 18.2 3 Norte 12 Oeste 0 -- -- 81
2019-06-19 18:00:00 18.6 2 Noroeste 12 Norte 0 -- -- 80
2019-06-19 17:00:00 18.9 5 Noroeste 14 Norte 0 -- -- 79
2019-06-19 16:00:00 19.4 6 Norte 16 Norte 0 -- -- 79
2019-06-19 15:00:00 19.8 3 Norte 16 Norte 0 -- -- 76
2019-06-19 14:00:00 20.6 9 Nordeste 15 Nordeste 0 -- -- 78
2019-06-19 13:00:00 20.5 8 Nordeste 13 Nordeste 0 -- -- 75
2019-06-19 12:00:00 20.3 5 Nordeste 9 Nordeste 0 -- -- 71
2019-06-19 11:00:00 19.4 5 Nordeste 10 Nordeste 0 -- -- 72
2019-06-19 10:00:00 17.5 4 Sudoeste 5 Sudoeste 0 -- -- 87
2019-06-19 09:00:00 15.7 6 Sudoeste 9 Sudoeste 0 -- -- 91
2019-06-19 08:00:00 14.8 3 Noroeste 8 Oeste 0 -- -- 93
2019-06-19 07:00:00 13.8 5 Oeste 9 Sudoeste 0 -- -- 92
2019-06-19 06:00:00 14.7 3 Oeste 12 Oeste 0 -- -- 87
2019-06-19 05:00:00 14.7 10 Sudoeste 14 Sudoeste 0 -- -- 87
2019-06-19 04:00:00 15.2 9 Sudoeste 16 Oeste 0 -- -- 87
2019-06-19 03:00:00 14.9 7 Sudoeste 12 Sudoeste 0 -- -- 92
2019-06-19 02:00:00 14.2 4 Oeste 5 Oeste 0 -- -- 94
2019-06-19 01:00:00 15.4 2 Oeste 7 Oeste 0 -- -- 93
2019-06-19 00:00:00 15.5 0 Calma 4 Oeste 0 -- -- 95
2019-06-18 23:00:00 15.5 0 Calma 5 Noroeste 0 -- -- 93
2019-06-18 22:00:00 16.9 2 Nordeste 6 Este 0 -- -- 80
2019-06-18 21:00:00 18 3 Oeste 6 Oeste 0 -- -- 80
2019-06-18 20:00:00 17.5 2 Nordeste 9 Nordeste 0 -- -- 90
2019-06-18 19:00:00 17.9 8 Nordeste 13 Nordeste 0 -- -- 87
2019-06-18 18:00:00 18.6 9 Nordeste 14 Este 0 -- -- 86
2019-06-18 17:00:00 18.3 10 Nordeste 18 Nordeste 0 -- -- 88
2019-06-18 16:00:00 18.2 4 Sudeste 22 Noroeste 0 -- -- 90
2019-06-18 15:00:00 17.8 12 Norte 30 Noroeste 0 -- -- 88
2019-06-18 14:00:00 19.4 12 Norte 21 Norte 0 -- -- 85
2019-06-18 13:00:00 17.9 8 Oeste 22 Oeste 0 -- -- 89
2019-06-18 12:00:00 17.5 6 Norte 12 Nordeste 0 -- -- 92
2019-06-18 11:00:00 16.9 6 Nordeste 11 Nordeste 0 -- -- 97
2019-06-18 10:00:00 16.2 4 Nordeste 9 Nordeste 0 -- -- 99
2019-06-18 09:00:00 15.1 3 Sudeste 9 Sudoeste 0 -- -- 100
2019-06-18 08:00:00 13.1 8 Sudoeste 13 Sudoeste 0 -- -- 100
2019-06-18 07:00:00 13.1 6 Oeste 13 Sudoeste 0 -- -- 100
2019-06-18 06:00:00 13.6 8 Oeste 13 Oeste 0 -- -- 100
2019-06-18 05:00:00 13.5 5 Oeste 12 Sudoeste 0 -- -- 100
2019-06-18 04:00:00 13.8 5 Oeste 9 Oeste 0 -- -- 99
2019-06-18 03:00:00 13.9 4 Oeste 6 Sudoeste 0 -- -- 99
2019-06-18 02:00:00 13.5 0 Calma 5 Noroeste 0 -- -- 97
2019-06-18 01:00:00 15 0 Calma 5 Sudoeste 0 -- -- 97
2019-06-18 00:00:00 15.2 2 Nordeste 6 Nordeste 0 -- -- 96
2019-06-17 23:00:00 15.4 2 Noroeste 5 Oeste 0 -- -- 94
2019-06-17 22:00:00 16.1 2 Este 6 Sudeste 0 -- -- 92
2019-06-17 21:00:00 16.9 3 Oeste 12 Oeste 0 -- -- 89
2019-06-17 20:00:00 16.8 7 Noroeste 14 Oeste 0 -- -- 87
2019-06-17 19:00:00 17.7 7 Oeste 13 Noroeste 0 -- -- 85
2019-06-17 18:00:00 17.4 3 Noroeste 12 Oeste 0 -- -- 85
2019-06-17 17:00:00 17.2 4 Oeste 16 Oeste 0 -- -- 86
2019-06-17 16:00:00 17.1 3 Norte 18 Norte 0 -- -- 87
2019-06-17 15:00:00 17.2 9 Nordeste 18 Nordeste 0 -- -- 87
2019-06-17 14:00:00 17.7 9 Norte 13 Norte 0 -- -- 86
2019-06-17 13:00:00 17.3 8 Norte 11 Norte 0 -- -- 87
2019-06-17 12:00:00 17.1 4 Nordeste 10 Nordeste 0 -- -- 89
2019-06-17 11:00:00 17.1 6 Nordeste 9 Nordeste 0 -- -- 89
2019-06-17 10:00:00 16.6 4 Sudeste 9 Sudoeste 0 -- -- 91
2019-06-17 09:00:00 15.9 4 Sudoeste 7 Oeste 0 -- -- 96
2019-06-17 08:00:00 15.4 3 Sudoeste 5 Sudoeste 0 -- -- 97
2019-06-17 07:00:00 15.1 0 Calma 6 Sudoeste 0 -- -- 97
2019-06-17 06:00:00 15.2 4 Sudoeste 6 Sudoeste 0 -- -- 97
2019-06-17 05:00:00 15.2 0 Calma 5 Sudoeste 0 -- -- 97
2019-06-17 04:00:00 15.2 2 Sudoeste 5 Oeste 0 -- -- 96
2019-06-17 03:00:00 15.3 0 Calma 3 Sudeste 0 -- -- 95
2019-06-17 02:00:00 15.6 3 Sudeste 12 Este 0 -- -- 92
2019-06-17 01:00:00 15.9 4 Nordeste 10 Este 0 -- -- 90
2019-06-17 00:00:00 16 5 Este 14 Este 0 -- -- 92
2019-06-16 23:00:00 16.1 9 Este 13 Este 0 -- -- 92
2019-06-16 22:00:00 16.2 8 Este 15 Este 0 -- -- 92
2019-06-16 21:00:00 16.4 9 Este 21 Este 0 -- -- 91
2019-06-16 20:00:00 16.7 11 Este 19 Este 0 -- -- 89
2019-06-16 19:00:00 17 12 Este 21 Este 0 -- -- 88
2019-06-16 18:00:00 18.7 12 Este 21 Este 0 -- -- 81
2019-06-16 17:00:00 18.9 13 Este 23 Nordeste 0 -- -- 81
2019-06-16 16:00:00 18.9 13 Este 25 Nordeste 0 -- -- 80
2019-06-16 15:00:00 18.7 13 Este 23 Nordeste 0 -- -- 80
2019-06-16 14:00:00 18 13 Este 26 Este 0 -- -- 82
2019-06-16 13:00:00 18.2 14 Este 25 Este 0 -- -- 78
2019-06-16 12:00:00 17.6 10 Nordeste 20 Este 0 -- -- 79
2019-06-16 11:00:00 17.2 8 Nordeste 18 Nordeste 0 -- -- 76
2019-06-16 10:00:00 15.6 7 Norte 11 Nordeste 0 -- -- 76
2019-06-16 09:00:00 13.9 2 Sudeste 12 Sudoeste 0 -- -- 84
2019-06-16 08:00:00 11.4 9 Sudoeste 15 Oeste 0 -- -- 88
2019-06-16 07:00:00 10.4 10 Oeste 14 Oeste 0 -- -- 90
2019-06-16 06:00:00 10.4 8 Sudoeste 12 Oeste 0 -- -- 90
2019-06-16 05:00:00 10.7 9 Sudoeste 14 Sudoeste 0 -- -- 89
2019-06-16 04:00:00 11.4 8 Sudoeste 12 Oeste 0 -- -- 90
2019-06-16 03:00:00 11.4 3 Oeste 6 Oeste 0 -- -- 88
2019-06-16 02:00:00 13.2 4 Oeste 8 Oeste 0 -- -- 87
2019-06-16 01:00:00 13.5 5 Oeste 7 Oeste 0 -- -- 86
2019-06-16 00:00:00 14.1 2 Sudoeste 4 Sudoeste 0 -- -- 84
2019-06-15 23:00:00 14.7 0 Calma 2 Noroeste 0 -- -- 82
2019-06-15 22:00:00 15.7 0 Calma 3 Este 0 -- -- 76
2019-06-15 21:00:00 16.4 2 Este 6 Norte 0 -- -- 68
2019-06-15 20:00:00 16.7 3 Nordeste 5 Nordeste 0 -- -- 68
2019-06-15 19:00:00 16.8 3 Nordeste 8 Este 0 -- -- 68
2019-06-15 18:00:00 17 4 Este 8 Este 0 -- -- 68
2019-06-15 17:00:00 17.5 4 Este 11 Nordeste 0 -- -- 68
2019-06-15 16:00:00 17.8 7 Nordeste 14 Nordeste 0 -- -- 70
2019-06-15 15:00:00 17.8 9 Norte 15 Norte 0 -- -- 71
2019-06-15 14:00:00 17.2 6 Nordeste 14 Nordeste 0 -- -- 73
2019-06-15 13:00:00 17.9 11 Norte 22 Nordeste 0 -- -- 73
2019-06-15 12:00:00 17.6 17 Nordeste 24 Nordeste 0 -- -- 72
2019-06-15 11:00:00 17.9 12 Norte 20 Nordeste 0 -- -- 72
2019-06-15 10:00:00 16.7 4 Oeste 13 Sudoeste 0 -- -- 73
2019-06-15 09:00:00 14.6 7 Sudoeste 16 Sudoeste 0 -- -- 82
2019-06-15 08:00:00 12 9 Sudoeste 16 Sudoeste 0 -- -- 88
2019-06-15 07:00:00 11 9 Sudoeste 13 Oeste 0 -- -- 89
2019-06-15 06:00:00 11.7 9 Sudoeste 14 Oeste 0 -- -- 87
2019-06-15 05:00:00 12.5 7 Oeste 10 Sudoeste 0 -- -- 86
2019-06-15 04:00:00 13.7 7 Oeste 12 Oeste 0 -- -- 82
2019-06-15 03:00:00 14 6 Sudoeste 11 Sudoeste 0 -- -- 86
2019-06-15 02:00:00 14.4 7 Oeste 13 Oeste 0 -- -- 87
2019-06-15 01:00:00 14.2 6 Oeste 12 Oeste 0 -- -- 91
2019-06-15 00:00:00 14.2 5 Oeste 11 Oeste 0 -- -- 92
2019-06-14 23:00:00 14.1 7 Oeste 13 Oeste 0 -- -- 92
2019-06-14 22:00:00 14.5 3 Noroeste 4 Noroeste 0 -- -- 88
2019-06-14 21:00:00 15.2 0 Calma 5 Nordeste 0 -- -- 83
2019-06-14 20:00:00 15.8 3 Nordeste 7 Nordeste 0 -- -- 79
2019-06-14 19:00:00 16.2 4 Nordeste 9 Este 0 -- -- 78
2019-06-14 18:00:00 16.2 5 Nordeste 12 Nordeste 0 -- -- 78
2019-06-14 17:00:00 16.5 7 Nordeste 12 Este 0 -- -- 79
2019-06-14 16:00:00 16.3 6 Este 11 Este 0 -- -- 79
2019-06-14 15:00:00 16.5 5 Nordeste 12 Nordeste 0 -- -- 78
2019-06-14 14:00:00 16.1 5 Nordeste 13 Nordeste 0 -- -- 81
2019-06-14 13:00:00 15.8 7 Nordeste 15 Nordeste 0 -- -- 81
2019-06-14 12:00:00 16.6 9 Nordeste 18 Este 0 -- -- 79
2019-06-14 11:00:00 16.2 9 Nordeste 17 Este 0 -- -- 80
2019-06-14 10:00:00 14.7 7 Nordeste 11 Nordeste 0 -- -- 88
2019-06-14 09:00:00 12.5 0 Calma 12 Sudoeste 0 -- -- 98
2019-06-14 08:00:00 10.2 9 Sudoeste 13 Sudoeste 0 -- -- 99
2019-06-14 07:00:00 9.6 9 Oeste 15 Oeste 0 -- -- 99
2019-06-14 06:00:00 9.6 8 Oeste 13 Sudoeste 0 -- -- 98
2019-06-14 05:00:00 10.1 9 Oeste 15 Oeste 0 -- -- 98
2019-06-14 04:00:00 10.4 8 Sudoeste 12 Sudoeste 0 -- -- 98
2019-06-14 03:00:00 10.9 7 Sudoeste 9 Sudoeste 0 -- -- 97
2019-06-14 02:00:00 11.6 5 Oeste 9 Oeste 0 -- -- 96
2019-06-14 01:00:00 12.4 4 Oeste 8 Sudoeste 0 -- -- 96
2019-06-14 00:00:00 12.3 0 Calma 5 Sudoeste 0 -- -- 94
2019-06-13 23:00:00 13 3 Oeste 5 Sudoeste 0 -- -- 92
2019-06-13 22:00:00 13.9 0 Calma 2 Noroeste 0 -- -- 88
2019-06-13 21:00:00 14.6 0 Calma 4 Sudeste 0 -- -- 84
2019-06-13 20:00:00 14.7 0 Calma 5 Sur 0 -- -- 86
2019-06-13 19:00:00 14.1 3 Oeste 8 Sudoeste 0 -- -- 90
2019-06-13 18:00:00 13.7 4 Sudoeste 9 Oeste 0 -- -- 91
2019-06-13 17:00:00 14.1 3 Sudoeste 12 Sur 0 -- -- 87
2019-06-13 16:00:00 14.4 6 Nordeste 14 Nordeste 0 -- -- 82
2019-06-13 15:00:00 14.5 8 Nordeste 17 Nordeste 0 -- -- 82
2019-06-13 14:00:00 14.9 6 Nordeste 13 Nordeste 0 -- -- 81
2019-06-13 13:00:00 14.6 5 Nordeste 14 Nordeste 0 -- -- 83
2019-06-13 12:00:00 15 6 Nordeste 13 Nordeste 0 -- -- 83
2019-06-13 11:00:00 15.1 4 Nordeste 8 Norte 0 -- -- 82
2019-06-13 10:00:00 13.2 4 Sudoeste 9 Sudoeste 0 -- -- 94
2019-06-13 09:00:00 11.6 6 Sudoeste 12 Sudoeste 0 -- -- 96
2019-06-13 08:00:00 9.8 8 Sudoeste 13 Sudoeste 0 -- -- 97
2019-06-13 07:00:00 9.4 10 Oeste 14 Sudoeste 0 -- -- 98
2019-06-13 06:00:00 9.3 9 Sudoeste 15 Oeste 0 -- -- 97
2019-06-13 05:00:00 9.7 9 Oeste 14 Sudoeste 0 -- -- 96
2019-06-13 04:00:00 10.3 8 Oeste 13 Oeste 0 -- -- 96
2019-06-13 03:00:00 10.9 6 Oeste 9 Oeste 0 -- -- 95
2019-06-13 02:00:00 11.8 4 Sudoeste 6 Sudoeste 0 -- -- 94
2019-06-13 01:00:00 12.5 2 Sudoeste 7 Sudoeste 0 -- -- 92
2019-06-13 00:00:00 12.8 3 Oeste -- -- 0 -- -- 92
2019-06-12 23:00:00 13.2 0 Calma 3 Sudoeste 0 -- -- 90
2019-06-12 22:00:00 13.9 2 Oeste 14 Oeste 0 -- -- 85
2019-06-12 21:00:00 14.2 6 Oeste 13 Oeste 0 -- -- 81
2019-06-12 20:00:00 14.6 6 Oeste 16 Oeste 0 -- -- 80
2019-06-12 19:00:00 15.2 6 Oeste 15 Oeste 0 -- -- 73
2019-06-12 18:00:00 15.3 6 Oeste 22 Oeste 0 -- -- 74
2019-06-12 17:00:00 17.1 11 Oeste 30 Oeste 0 -- -- 68
2019-06-12 16:00:00 17.3 9 Oeste 31 Oeste 0 -- -- 72
2019-06-12 15:00:00 16.8 6 Oeste 23 Oeste 0 -- -- 67
2019-06-12 14:00:00 17 14 Oeste 29 Oeste 0 -- -- 62
2019-06-12 13:00:00 15.1 13 Oeste 38 Sudoeste 0 -- -- 64
2019-06-12 12:00:00 14.9 18 Sudoeste 36 Sudoeste 0 -- -- 65
2019-06-12 11:00:00 13.8 14 Sudoeste 25 Sudoeste 0 -- -- 70
2019-06-12 10:00:00 13.4 9 Sudoeste 23 Sudoeste 0 -- -- 71
2019-06-12 09:00:00 12.9 9 Sudoeste 21 Sudoeste 0 -- -- 74
2019-06-12 08:00:00 12 10 Oeste 18 Sudoeste 0 -- -- 76
2019-06-12 07:00:00 11.4 10 Oeste 26 Oeste 0 -- -- 77
2019-06-12 06:00:00 11.5 13 Oeste 24 Sudoeste 0 -- -- 78
2019-06-12 05:00:00 11.2 10 Oeste 22 Oeste 0.2 -- -- 82
2019-06-12 04:00:00 11.4 10 Oeste 21 Sudoeste 0.6 -- -- 83
2019-06-12 03:00:00 11.6 10 Oeste 24 Sudoeste 0 -- -- 83
2019-06-12 02:00:00 11.4 10 Oeste 21 Oeste 0 -- -- 86
2019-06-12 01:00:00 11.6 10 Oeste 25 Sudoeste 0 -- -- 87
2019-06-12 00:00:00 11.5 9 Oeste 20 Sudoeste 0.2 -- -- 91
2019-06-11 23:00:00 12.3 10 Sudoeste 28 Sudoeste 0.8 -- -- 85
2019-06-11 22:00:00 13.4 8 Oeste 19 Oeste 0 -- -- 78
2019-06-11 21:00:00 14.5 11 Oeste 26 Oeste 0 -- -- 78
2019-06-11 20:00:00 14.8 10 Oeste 24 Oeste 0.4 -- -- 82
2019-06-11 19:00:00 15.3 12 Oeste 27 Oeste 0 -- -- 76
2019-06-11 18:00:00 16.3 13 Oeste 26 Oeste 0 -- -- 72
2019-06-11 17:00:00 16.7 11 Oeste 33 Oeste 0 -- -- 67
2019-06-11 16:00:00 16.1 13 Oeste 35 Oeste 0.2 -- -- 74
2019-06-11 15:00:00 16.4 15 Oeste 34 Oeste 0 -- -- 71
2019-06-11 14:00:00 16.3 10 Oeste 31 Oeste 0 -- -- 73
2019-06-11 13:00:00 15.7 11 Sudoeste 27 Oeste 0 -- -- 76
2019-06-11 12:00:00 13.4 13 Oeste 26 Oeste 0.6 -- -- 82
2019-06-11 11:00:00 14.2 12 Sudoeste 27 Sudoeste 0 -- -- 85
2019-06-11 10:00:00 13.1 6 Sudoeste 15 Oeste 0 -- -- 94
2019-06-11 09:00:00 11.3 8 Sudoeste 21 Sudoeste 2.4 -- -- 95
2019-06-11 08:00:00 10.5 10 Oeste 19 Oeste 0.2 -- -- 95
2019-06-11 07:00:00 10.7 9 Oeste 24 Sudoeste 2.2 -- -- 97
2019-06-11 06:00:00 10.5 10 Sudoeste 19 Oeste 1.2 -- -- 97
2019-06-11 05:00:00 11.1 9 Sudoeste 17 Sudoeste 0.2 -- -- 98
2019-06-11 04:00:00 11.4 4 Sudoeste 15 Sudoeste 0.8 -- -- 97
2019-06-11 03:00:00 11.4 5 Oeste 12 Oeste 0.2 -- -- 96
2019-06-11 02:00:00 11.5 6 Oeste 15 Oeste 0.8 -- -- 95
2019-06-11 01:00:00 11.7 7 Sudoeste 23 Oeste 2.4 -- -- 92
2019-06-11 00:00:00 12.4 8 Oeste 17 Oeste 0 -- -- 93
2019-06-10 23:00:00 12.5 6 Oeste 12 Oeste 0.2 -- -- 95
2019-06-10 22:00:00 12.8 5 Oeste 11 Sudoeste 0.2 -- -- 92
2019-06-10 21:00:00 13.9 3 Sudoeste 11 Oeste 0 -- -- 88
2019-06-10 20:00:00 14.5 5 Oeste 12 Sudoeste 0 -- -- 80
2019-06-10 19:00:00 14.8 6 Oeste 15 Sudoeste 0 -- -- 81
2019-06-10 18:00:00 15.6 3 Oeste 13 Sudoeste 0 -- -- 72
2019-06-10 17:00:00 16.3 4 Noroeste 14 Sudoeste 0 -- -- 69
2019-06-10 16:00:00 16.3 5 Nordeste 16 Oeste 0 -- -- 74
2019-06-10 15:00:00 16.3 7 Nordeste 23 Nordeste 0 -- -- 73
2019-06-10 14:00:00 16.3 12 Norte 19 Norte 0 -- -- 69
2019-06-10 13:00:00 16.2 10 Norte 15 Norte 0 -- -- 77
2019-06-10 12:00:00 15.2 8 Nordeste 12 Norte 0 -- -- 76
2019-06-10 11:00:00 14.9 6 Nordeste 10 Nordeste 0 -- -- 80
2019-06-10 10:00:00 13.7 5 Oeste 9 Oeste 0 -- -- 91
2019-06-10 09:00:00 12.1 5 Sudoeste 13 Sudoeste 0 -- -- 94
2019-06-10 08:00:00 10.6 8 Oeste 14 Oeste 0 -- -- 96
2019-06-10 07:00:00 9.3 9 Sudoeste 16 Oeste 0 -- -- 97
2019-06-10 06:00:00 9.1 10 Oeste 15 Oeste 0 -- -- 97
2019-06-10 05:00:00 9.2 9 Oeste 14 Oeste 0 -- -- 97
2019-06-10 04:00:00 9.7 8 Sudoeste 12 Oeste 0 -- -- 96
2019-06-10 03:00:00 10.4 8 Sudoeste 13 Oeste 0 -- -- 95
2019-06-10 02:00:00 11 7 Sudoeste 12 Sudoeste 0 -- -- 95
2019-06-10 01:00:00 11.6 5 Oeste 9 Sudoeste 0 -- -- 93
2019-06-10 00:00:00 12 5 Oeste 11 Sudoeste 0 -- -- 92
2019-06-09 23:00:00 12.3 6 Oeste 11 Oeste 0 -- -- 92
2019-06-09 22:00:00 12.6 5 Oeste 8 Oeste 0 -- -- 90
2019-06-09 21:00:00 13.3 3 Sudoeste 5 Sudoeste 0 -- -- 93
2019-06-09 20:00:00 13.5 2 Sudoeste 4 Sudoeste 0 -- -- 91
2019-06-09 19:00:00 13.5 0 Calma 10 Sudeste 0 -- -- 93
2019-06-09 18:00:00 13.4 4 Este 12 Nordeste 0 -- -- 94
2019-06-09 17:00:00 13 6 Nordeste 13 Nordeste 0.8 -- -- 96
2019-06-09 16:00:00 13 3 Sudeste 9 Sudeste 0 -- -- 95
2019-06-09 15:00:00 13.2 3 Este 14 Nordeste 0 -- -- 92
2019-06-09 14:00:00 14.2 4 Norte 8 Norte 0 -- -- 86
2019-06-09 13:00:00 13.8 3 Nordeste 12 Este 0 -- -- 93
2019-06-09 12:00:00 13.7 4 Nordeste 21 Este 0.2 -- -- 93
2019-06-09 11:00:00 14.7 11 Este 18 Nordeste 0 -- -- 89
2019-06-09 10:00:00 14 5 Nordeste 14 Este 0 -- -- 92
2019-06-09 09:00:00 13.7 8 Este 20 Este 0 -- -- 93
2019-06-09 08:00:00 13.5 11 Este 22 Nordeste 0.2 -- -- 93
2019-06-09 07:00:00 13.7 12 Este 23 Este 0.2 -- -- 93
2019-06-09 06:00:00 13.4 8 Este 24 Este 0 -- -- 94
2019-06-09 05:00:00 13.5 5 Nordeste 12 Norte 0 -- -- 94
2019-06-09 04:00:00 13.4 4 Este 13 Este 0.2 -- -- 93
2019-06-09 03:00:00 13.8 0 Calma 8 Este 0 -- -- 91
2019-06-09 02:00:00 14 6 Este 12 Este 0 -- -- 88
2019-06-09 01:00:00 14 4 Este 14 Este 0 -- -- 87
2019-06-09 00:00:00 13.9 6 Este 14 Este 0 -- -- 85
2019-06-08 23:00:00 14 5 Este 14 Este 0 -- -- 82
2019-06-08 22:00:00 14.2 6 Este 22 Este 0 -- -- 84
2019-06-08 21:00:00 14.7 15 Este 26 Este 0 -- -- 82
2019-06-08 20:00:00 14.8 14 Este 24 Este 0 -- -- 81
2019-06-08 19:00:00 14.8 15 Este 27 Este 0 -- -- 82
2019-06-08 18:00:00 14.8 13 Este 26 Este 0 -- -- 83
2019-06-08 17:00:00 15 14 Este 29 Este 0 -- -- 81
2019-06-08 16:00:00 15.4 16 Este 29 Este 0 -- -- 82
2019-06-08 15:00:00 15.7 16 Este 30 Este 0 -- -- 80
2019-06-08 14:00:00 16.3 17 Este 28 Este 0 -- -- 76
2019-06-08 13:00:00 16.8 17 Este 27 Nordeste 0 -- -- 74
2019-06-08 12:00:00 16.2 13 Este 22 Nordeste 0 -- -- 76
2019-06-08 11:00:00 16.1 12 Nordeste 21 Nordeste 0 -- -- 74
2019-06-08 10:00:00 14.8 9 Nordeste 14 Nordeste 0 -- -- 78
2019-06-08 09:00:00 12.9 4 Sudoeste 10 Sudoeste 0 -- -- 90
2019-06-08 08:00:00 10.2 6 Sudoeste 13 Oeste 0 -- -- 93
2019-06-08 07:00:00 10.1 8 Sudoeste 14 Oeste 0 -- -- 92
2019-06-08 06:00:00 10.1 9 Sudoeste 14 Oeste 0 -- -- 92
2019-06-08 05:00:00 10.2 9 Oeste 13 Oeste 0 -- -- 90
2019-06-08 04:00:00 10.7 8 Oeste 12 Oeste 0 -- -- 89
2019-06-08 03:00:00 11 8 Sudoeste 12 Sudoeste 0 -- -- 87
2019-06-08 02:00:00 11.4 6 Sudoeste 9 Sudoeste 0 -- -- 85
2019-06-08 01:00:00 12.2 5 Sudoeste 9 Oeste 0 -- -- 82
2019-06-08 00:00:00 11.9 4 Sudoeste 8 Sudoeste 0 -- -- 84
2019-06-07 23:00:00 12 3 Oeste 11 Sudoeste 0 -- -- 83
2019-06-07 22:00:00 13.5 4 Oeste 17 Sudoeste 0 -- -- 73
2019-06-07 21:00:00 14.8 9 Oeste 23 Oeste 0 -- -- 70
2019-06-07 20:00:00 15.8 11 Oeste 31 Sudoeste 0 -- -- 66
2019-06-07 19:00:00 16.2 12 Oeste 36 Oeste 0 -- -- 64
2019-06-07 18:00:00 16.9 16 Oeste 37 Oeste 0 -- -- 55
2019-06-07 17:00:00 17.1 16 Oeste 41 Sudoeste 0 -- -- 57
2019-06-07 16:00:00 18 12 Sudoeste 42 Oeste 0 -- -- 58
2019-06-07 15:00:00 15.9 21 Oeste 46 Oeste 0 -- -- 61
2019-06-07 14:00:00 18.9 15 Oeste 43 Sudoeste 0 -- -- 49
2019-06-07 13:00:00 17.4 22 Oeste 49 Sudoeste 0 -- -- 52
2019-06-07 12:00:00 16.8 24 Sudoeste 63 Oeste 0 -- -- 51
2019-06-07 11:00:00 16.8 23 Oeste 54 Oeste 0 -- -- 52
2019-06-07 10:00:00 15.6 27 Oeste 65 Oeste 0.2 -- -- 52
2019-06-07 09:00:00 14.6 28 Sudoeste 52 Sudoeste 0 -- -- 56
2019-06-07 08:00:00 13.7 25 Sudoeste 64 Oeste 0 -- -- 58
2019-06-07 07:00:00 13.7 24 Sudoeste 55 Oeste 0 -- -- 59
2019-06-07 06:00:00 13.6 20 Oeste 45 Oeste 0 -- -- 57
2019-06-07 05:00:00 13.4 18 Oeste 41 Oeste 0 -- -- 59
2019-06-07 04:00:00 12.8 15 Sudoeste 40 Sudoeste 0 -- -- 68
2019-06-07 03:00:00 10.4 4 Sudoeste 12 Sudoeste 0 -- -- 85
2019-06-07 02:00:00 10.9 6 Sudoeste 11 Sudoeste 0 -- -- 93
2019-06-07 01:00:00 10.9 4 Sudoeste 12 Sudoeste 0 -- -- 96
2019-06-07 00:00:00 11.4 4 Noroeste 14 Sudoeste 0 -- -- 94
2019-06-06 23:00:00 13.7 3 Sudoeste 27 Norte 0 -- -- 88
2019-06-06 22:00:00 14.4 4 Noroeste 22 Oeste 1.2 -- -- 90
2019-06-06 21:00:00 16.5 14 Oeste 24 Oeste 0.8 -- -- 79
2019-06-06 20:00:00 17.9 12 Noroeste 21 Noroeste 0 -- -- 74
2019-06-06 19:00:00 17.3 6 Norte 11 Nordeste 0 -- -- 84
2019-06-06 18:00:00 17.8 9 Norte 32 Nordeste 0 -- -- 79
2019-06-06 17:00:00 18.2 15 Este 37 Este 0 -- -- 77
2019-06-06 16:00:00 17.3 19 Este 37 Este 0 -- -- 80
2019-06-06 15:00:00 18.4 20 Este 37 Este 0 -- -- 76
2019-06-06 14:00:00 17.5 21 Este 37 Este 0 -- -- 72
2019-06-06 13:00:00 17 18 Este 33 Este 0 -- -- 72
2019-06-06 12:00:00 16.5 20 Este 31 Este 0 -- -- 72
2019-06-06 11:00:00 16 16 Este 27 Este 0 -- -- 70
2019-06-06 10:00:00 15.1 12 Este 21 Este 0 -- -- 73
2019-06-06 09:00:00 11.6 3 Este 8 Sudoeste 0 -- -- 92
2019-06-06 08:00:00 9.2 3 Oeste 15 Sudoeste 0 -- -- 94
2019-06-06 07:00:00 8.2 8 Sudoeste 15 Oeste 0 -- -- 94
2019-06-06 06:00:00 8.6 9 Oeste 16 Sudoeste 0 -- -- 94
2019-06-06 05:00:00 8.6 9 Sudoeste 15 Sudoeste 0 -- -- 93
2019-06-06 04:00:00 9 9 Sudoeste 17 Oeste 0 -- -- 92
2019-06-06 03:00:00 9.8 9 Oeste 14 Oeste 0 -- -- 90
2019-06-06 02:00:00 10.6 9 Oeste 14 Sudoeste 0 -- -- 90
2019-06-06 01:00:00 10.2 8 Oeste 13 Sudoeste 0 -- -- 93
2019-06-06 00:00:00 10.7 5 Sudoeste 12 Oeste 0 -- -- 92
2019-06-05 23:00:00 11.2 6 Sudoeste 10 Oeste 0 -- -- 92
2019-06-05 22:00:00 11.7 5 Sudoeste 21 Sudoeste 1 -- -- 90
2019-06-05 21:00:00 13.9 5 Oeste 12 Sudoeste 0 -- -- 75
2019-06-05 20:00:00 14.5 5 Oeste 18 Oeste 0 -- -- 69
2019-06-05 19:00:00 16 9 Sur 20 Sur 0 -- -- 68
2019-06-05 18:00:00 15.4 3 Oeste 15 Sur 0 -- -- 73
2019-06-05 17:00:00 14.7 5 Oeste 19 Oeste 0.2 -- -- 78
2019-06-05 16:00:00 14.4 9 Sudoeste 20 Sudoeste 0 -- -- 81
2019-06-05 15:00:00 12.3 9 Sudoeste 31 Sudoeste 2.8 -- -- 90
2019-06-05 14:00:00 15.8 13 Sudoeste 26 Sur 0 -- -- 71
2019-06-05 13:00:00 14.9 13 Sudoeste 32 Oeste 0 -- -- 72
2019-06-05 12:00:00 14.2 17 Oeste 37 Oeste 0 -- -- 73
2019-06-05 11:00:00 14.2 14 Oeste 31 Sudoeste 0.2 -- -- 84
2019-06-05 10:00:00 13.4 10 Oeste 27 Oeste 0 -- -- 79
2019-06-05 09:00:00 13.5 6 Oeste 17 Sudoeste 0 -- -- 86
2019-06-05 08:00:00 12.5 8 Oeste 15 Oeste 0 -- -- 91
2019-06-05 07:00:00 12.2 5 Oeste 13 Oeste 0 -- -- 92
2019-06-05 06:00:00 12.6 6 Oeste 17 Sudoeste 0 -- -- 91
2019-06-05 05:00:00 12.5 10 Oeste 17 Oeste 0 -- -- 91
2019-06-05 04:00:00 12.5 9 Oeste 17 Oeste 0.2 -- -- 91
2019-06-05 03:00:00 12.5 10 Oeste 19 Sudoeste 0 -- -- 92
2019-06-05 02:00:00 12.6 10 Oeste 19 Sudoeste 0 -- -- 93
2019-06-05 01:00:00 12.8 7 Sudoeste 16 Oeste 0 -- -- 96
2019-06-05 00:00:00 13.1 7 Oeste 16 Sudoeste 0 -- -- 96
2019-06-04 23:00:00 13.4 7 Sudoeste 15 Sudoeste 0 -- -- 97
2019-06-04 22:00:00 13.6 5 Oeste 12 Oeste 0.2 -- -- 97
2019-06-04 21:00:00 13.9 4 Oeste 9 Oeste 0.4 -- -- 96
2019-06-04 20:00:00 14.3 4 Oeste 6 Sudoeste 0.4 -- -- 95
2019-06-04 19:00:00 14.6 3 Oeste 8 Sudoeste 1.2 -- -- 95
2019-06-04 18:00:00 14.8 4 Sudoeste 9 Sur 0.4 -- -- 92
2019-06-04 17:00:00 15.2 5 Sudoeste 15 Oeste 1.2 -- -- 90
2019-06-04 16:00:00 15.1 5 Noroeste 13 Oeste 2 -- -- 84
2019-06-04 15:00:00 16.1 6 Oeste 20 Noroeste 0.2 -- -- 78
2019-06-04 14:00:00 16.7 9 Oeste 31 Sudoeste 0 -- -- 78
2019-06-04 13:00:00 15.9 11 Sudoeste 28 Oeste 0 -- -- 84
2019-06-04 12:00:00 18.4 5 Nordeste 10 Nordeste 0 -- -- 78
2019-06-04 11:00:00 19 4 Este 10 Nordeste 0 -- -- 80
2019-06-04 10:00:00 17.2 7 Sur 11 Sudoeste 0 -- -- 92
2019-06-04 09:00:00 16.2 6 Sudoeste 10 Sur 0 -- -- 98
2019-06-04 08:00:00 16.2 3 Noroeste 7 Oeste 0 -- -- 99
2019-06-04 07:00:00 16.3 4 Oeste 13 Oeste 0 -- -- 98
2019-06-04 06:00:00 16.7 3 Sudoeste 10 Sudoeste 0 -- -- 97
2019-06-04 05:00:00 16.6 6 Oeste 13 Noroeste 0 -- -- 98
2019-06-04 04:00:00 16.6 4 Oeste 8 Oeste 0 -- -- 99
2019-06-04 03:00:00 16.8 3 Oeste 8 Oeste 0 -- -- 99
2019-06-04 02:00:00 16.9 0 Calma 5 Este 0 -- -- 99
2019-06-04 01:00:00 17 2 Nordeste 10 Este 0 -- -- 99
2019-06-04 00:00:00 17 4 Este 11 Este 0 -- -- 99
2019-06-03 23:00:00 17 2 Nordeste 10 Este 0 -- -- 98
2019-06-03 22:00:00 17.1 6 Nordeste 12 Nordeste 0 -- -- 97
2019-06-03 21:00:00 17.3 5 Nordeste 10 Norte 0 -- -- 97
2019-06-03 20:00:00 17.7 4 Nordeste 11 Este 0 -- -- 95
2019-06-03 19:00:00 18 6 Este 13 Nordeste 0 -- -- 93
2019-06-03 18:00:00 18.9 7 Nordeste 17 Nordeste 0 -- -- 88
2019-06-03 17:00:00 19.6 9 Nordeste 15 Nordeste 0 -- -- 89
2019-06-03 16:00:00 20.1 6 Nordeste 14 Nordeste 0 -- -- 88
2019-06-03 15:00:00 19.7 8 Nordeste 14 Este 0 -- -- 90
2019-06-03 14:00:00 18.9 7 Nordeste 13 Nordeste 0 -- -- 93
2019-06-03 13:00:00 17.8 6 Nordeste 10 Norte 0 -- -- 97
2019-06-03 12:00:00 17.6 5 Nordeste 12 Norte 0 -- -- 98
2019-06-03 11:00:00 17.4 6 Nordeste 10 Nordeste 0 -- -- 98
2019-06-03 10:00:00 17.1 4 Nordeste 7 Nordeste 0 -- -- 98
2019-06-03 09:00:00 16.4 2 Noroeste 7 Sudoeste 0 -- -- 99
2019-06-03 08:00:00 15.7 0 Calma 5 Oeste 0 -- -- 99
2019-06-03 07:00:00 15.5 0 Calma 8 Nordeste 0.2 -- -- 98
2019-06-03 06:00:00 15.4 3 Norte 7 Nordeste 0 -- -- 97
2019-06-03 05:00:00 15.5 2 Nordeste 9 Sudeste 0 -- -- 95
2019-06-03 04:00:00 15.9 3 Oeste 9 Sudoeste 0 -- -- 94
2019-06-03 03:00:00 16 3 Sudoeste 8 Oeste 0 -- -- 91
2019-06-03 02:00:00 16.6 3 Oeste 10 Oeste 0 -- -- 88
2019-06-03 01:00:00 16.3 5 Sudoeste 8 Oeste 0 -- -- 89
2019-06-03 00:00:00 15.8 3 Oeste 5 Oeste 0 -- -- 93
2019-06-02 23:00:00 15.7 2 Sudoeste 4 Noroeste 0 -- -- 91
2019-06-02 22:00:00 16.4 0 Calma 7 Norte 0 -- -- 87
2019-06-02 21:00:00 18.1 0 Calma 10 Sudeste 0 -- -- 80
2019-06-02 20:00:00 19 7 Noroeste 13 Noroeste 0 -- -- 69
2019-06-02 19:00:00 18.7 7 Norte 13 Nordeste 0 -- -- 80
2019-06-02 18:00:00 18.1 10 Nordeste 13 Nordeste 0 -- -- 84
2019-06-02 17:00:00 18.6 7 Nordeste 14 Nordeste 0 -- -- 85
2019-06-02 16:00:00 18.2 9 Norte 17 Nordeste 0 -- -- 88
2019-06-02 15:00:00 18.5 9 Noroeste 19 Norte 0 -- -- 86
2019-06-02 14:00:00 19 8 Norte 17 Norte 0 -- -- 87
2019-06-02 13:00:00 19.6 9 Norte 16 Norte 0 -- -- 85
2019-06-02 12:00:00 20.2 8 Nordeste 14 Nordeste 0 -- -- 82
2019-06-02 11:00:00 20.7 7 Nordeste 10 Norte 0 -- -- 69
2019-06-02 10:00:00 18.9 2 Nordeste 6 Oeste 0 -- -- 77
2019-06-02 09:00:00 17.1 5 Sudoeste 13 Sudoeste 0 -- -- 80
2019-06-02 08:00:00 15.3 5 Sudoeste 13 Oeste 0 -- -- 86
2019-06-02 07:00:00 13.5 9 Sudoeste 14 Sudoeste 0 -- -- 90
2019-06-02 06:00:00 12.7 8 Sudoeste 12 Sudoeste 0 -- -- 95
2019-06-02 05:00:00 12.7 4 Sudoeste 9 Sudoeste 0 -- -- 93
2019-06-02 04:00:00 13.7 5 Sudoeste 9 Sudoeste 0 -- -- 91
2019-06-02 03:00:00 15 2 Oeste 9 Sudoeste 0 -- -- 87
2019-06-02 02:00:00 14.6 4 Sudoeste 8 Sudoeste 0 -- -- 92
2019-06-02 01:00:00 16.2 0 Calma 16 Sudoeste 0 -- -- 86
2019-06-02 00:00:00 18.2 10 Oeste 16 Oeste 0 -- -- 89
2019-06-01 23:00:00 16.3 0 Calma 4 Nordeste 0 -- -- 88
2019-06-01 22:00:00 17.8 2 Oeste 4 Noroeste 0 -- -- 81
2019-06-01 21:00:00 21.4 0 Calma 8 Sudeste 0 -- -- 71
2019-06-01 20:00:00 24.5 3 Sudeste 9 Noroeste 0 -- -- 61
2019-06-01 19:00:00 25.6 3 Nordeste 6 Sudeste 0 -- -- 57
2019-06-01 18:00:00 25.6 5 Sudeste 17 Norte 0 -- -- 57
2019-06-01 17:00:00 25.2 10 Noroeste 17 Noroeste 0 -- -- 52
2019-06-01 16:00:00 22.9 12 Nordeste 15 Nordeste 0 -- -- 62
2019-06-01 15:00:00 21.9 10 Nordeste 18 Norte 0 -- -- 68
2019-06-01 14:00:00 22.6 13 Norte 20 Norte 0 -- -- 63
2019-06-01 13:00:00 20.8 13 Nordeste 17 Nordeste 0 -- -- 76
2019-06-01 12:00:00 20.1 12 Nordeste 15 Nordeste 0 -- -- 84
2019-06-01 11:00:00 20.2 10 Nordeste 15 Nordeste 0 -- -- 84
2019-06-01 10:00:00 19.9 4 Nordeste 6 Sudoeste 0 -- -- 91
2019-06-01 09:00:00 16.8 0 Calma 10 Sudoeste 0 -- -- 100
2019-06-01 08:00:00 13.1 6 Sudoeste 10 Sudoeste 0 -- -- 100
2019-06-01 07:00:00 11.1 3 Oeste 7 Oeste 0 -- -- 100
2019-06-01 06:00:00 10.8 0 Calma 5 Sudoeste 0 -- -- 100
2019-06-01 05:00:00 11 6 Sudoeste 10 Oeste 0 -- -- 100
2019-06-01 04:00:00 11.7 7 Sudoeste 8 Sudoeste 0 -- -- 100
2019-06-01 03:00:00 11.4 3 Sudoeste 4 Sudoeste 0 -- -- 100
2019-06-01 02:00:00 11.7 0 Calma 3 Oeste 0 -- -- 100
2019-06-01 01:00:00 12.6 2 Sudoeste 5 Sudoeste 0 -- -- 98
2019-06-01 00:00:00 13.1 2 Oeste 4 Oeste 0 -- -- 97
2019-05-31 23:00:00 15 5 Oeste 8 Oeste 0 -- -- 96
2019-05-31 22:00:00 16.2 4 Noroeste 8 Nordeste 0 -- -- 93
2019-05-31 21:00:00 17.6 4 Norte 13 Este 0 -- -- 87
2019-05-31 20:00:00 18.8 6 Nordeste 14 Nordeste 0 -- -- 85
2019-05-31 19:00:00 19.4 6 Nordeste 19 Nordeste 0 -- -- 83
2019-05-31 18:00:00 19.7 6 Nordeste 17 Nordeste 0 -- -- 82
2019-05-31 17:00:00 20 6 Nordeste 21 Nordeste 0 -- -- 83
2019-05-31 16:00:00 19.5 7 Nordeste 14 Nordeste 0 -- -- 85
2019-05-31 15:00:00 19 8 Nordeste 19 Norte 0 -- -- 86
2019-05-31 14:00:00 18.9 7 Nordeste 17 Nordeste 0 -- -- 87
2019-05-31 13:00:00 18.6 8 Nordeste 13 Nordeste 0 -- -- 87
2019-05-31 12:00:00 18.2 6 Nordeste 13 Este 0 -- -- 89
2019-05-31 11:00:00 17.4 7 Nordeste 12 Nordeste 0 -- -- 94
2019-05-31 10:00:00 16.3 7 Nordeste 10 Nordeste 0 -- -- 99
2019-05-31 09:00:00 14.7 2 Este 6 Sudoeste 0 -- -- 100
2019-05-31 08:00:00 12.1 6 Sudoeste 12 Sudoeste 0 -- -- 100
2019-05-31 07:00:00 10.1 3 Sudoeste 7 Sudoeste 0 -- -- 100
2019-05-31 06:00:00 10.5 4 Sudoeste 8 Sudoeste 0 -- -- 100
2019-05-31 05:00:00 10.6 6 Sudoeste 8 Sudoeste 0 -- -- 100
2019-05-31 04:00:00 11.5 4 Sudoeste 10 Sudoeste 0 -- -- 99
2019-05-31 03:00:00 12 3 Oeste 9 Sudoeste 0 -- -- 99
2019-05-31 02:00:00 12.4 6 Sudoeste 8 Sudoeste 0 -- -- 98
2019-05-31 01:00:00 13 2 Oeste 6 Sudoeste 0 -- -- 95
2019-05-31 00:00:00 14.8 3 Norte 15 Nordeste 0 -- -- 93
2019-05-30 23:00:00 15.7 6 Norte 15 Nordeste 0 -- -- 93
2019-05-30 22:00:00 15.8 4 Nordeste 22 Este 0 -- -- 92
2019-05-30 21:00:00 16.4 11 Nordeste 31 Este 0 -- -- 88
2019-05-30 20:00:00 17.4 15 Este 28 Nordeste 0 -- -- 85
2019-05-30 19:00:00 17.9 17 Nordeste 28 Nordeste 0 -- -- 82
2019-05-30 18:00:00 18.2 13 Nordeste 27 Este 0 -- -- 81
2019-05-30 17:00:00 18.4 15 Nordeste 24 Nordeste 0 -- -- 80
2019-05-30 16:00:00 18.8 9 Este 24 Este 0 -- -- 80
2019-05-30 15:00:00 18.7 8 Nordeste 21 Este 0 -- -- 79
2019-05-30 14:00:00 18.7 8 Nordeste 18 Nordeste 0 -- -- 82
2019-05-30 13:00:00 17.9 9 Nordeste 14 Nordeste 0 -- -- 85
2019-05-30 12:00:00 17.8 8 Nordeste 13 Nordeste 0 -- -- 86
2019-05-30 11:00:00 17.1 8 Nordeste 15 Nordeste 0 -- -- 89
2019-05-30 10:00:00 15.8 8 Norte 12 Norte 0 -- -- 93
2019-05-30 09:00:00 14.3 4 Nordeste 7 Nordeste 0 -- -- 99
2019-05-30 08:00:00 11.9 5 Sudoeste 8 Oeste 0 -- -- 100
2019-05-30 07:00:00 9.5 0 Calma 8 Sudoeste 0 -- -- 99
2019-05-30 06:00:00 10.4 5 Sudoeste 12 Oeste 0 -- -- 99
2019-05-30 05:00:00 11 6 Sudoeste 11 Sudoeste 0 -- -- 99
2019-05-30 04:00:00 11.2 7 Sudoeste 12 Sudoeste 0 -- -- 98
2019-05-30 03:00:00 11.3 7 Sudoeste 11 Sudoeste 0 -- -- 97
2019-05-30 02:00:00 11.8 6 Oeste 11 Sudoeste 0 -- -- 96
2019-05-30 01:00:00 12.5 5 Sudoeste 11 Oeste 0 -- -- 93
2019-05-30 00:00:00 13.9 3 Este 16 Nordeste 0 -- -- 88
2019-05-29 23:00:00 14.6 10 Nordeste 22 Este 0 -- -- 88
2019-05-29 22:00:00 15.1 13 Este 27 Nordeste 0 -- -- 88
2019-05-29 21:00:00 15.6 15 Este 25 Este 0 -- -- 86
2019-05-29 20:00:00 16.7 14 Este 22 Nordeste 0 -- -- 84
2019-05-29 19:00:00 17.4 12 Este 23 Este 0 -- -- 82
2019-05-29 18:00:00 17.9 13 Este 23 Este 0 -- -- 82
2019-05-29 17:00:00 17.5 12 Nordeste 18 Nordeste 0 -- -- 82
2019-05-29 16:00:00 17.6 11 Este 17 Nordeste 0 -- -- 82
2019-05-29 15:00:00 17.5 9 Nordeste 15 Nordeste 0 -- -- 82
2019-05-29 14:00:00 17.3 10 Nordeste 14 Nordeste 0 -- -- 82
2019-05-29 13:00:00 17.1 9 Nordeste 15 Nordeste 0 -- -- 82
2019-05-29 12:00:00 16.4 9 Nordeste 13 Norte 0 -- -- 83
2019-05-29 11:00:00 16.2 9 Norte 14 Norte 0 -- -- 81
2019-05-29 10:00:00 15.7 9 Norte 12 Nordeste 0 -- -- 80
2019-05-29 09:00:00 14.8 4 Noroeste 9 Sudoeste 0 -- -- 79
2019-05-29 08:00:00 12.7 7 Sudoeste 12 Sudoeste 0 -- -- 87
2019-05-29 07:00:00 12.2 8 Sudoeste 12 Sudoeste 0 -- -- 88
2019-05-29 06:00:00 12.2 8 Oeste 13 Sudoeste 0 -- -- 90
2019-05-29 05:00:00 11.9 8 Sudoeste 10 Oeste 0 -- -- 90
2019-05-29 04:00:00 12.7 7 Sudoeste 13 Oeste 0 -- -- 89
2019-05-29 03:00:00 12.6 8 Oeste 13 Sudoeste 0 -- -- 90
2019-05-29 02:00:00 12.4 6 Sudoeste 13 Oeste 0 -- -- 91
2019-05-29 01:00:00 12.9 8 Oeste 14 Oeste 0 -- -- 90
2019-05-29 00:00:00 12.2 8 Oeste 13 Oeste 0 -- -- 93
2019-05-28 23:00:00 12.5 6 Oeste 9 Oeste 0 -- -- 92
2019-05-28 22:00:00 12.8 3 Oeste 10 Oeste 0 -- -- 89
2019-05-28 21:00:00 14.9 4 Oeste 10 Oeste 0 -- -- 80
2019-05-28 20:00:00 16.4 5 Norte 15 Nordeste 0 -- -- 75
2019-05-28 19:00:00 16.6 5 Noroeste 18 Noroeste 0 -- -- 72
2019-05-28 18:00:00 17.3 8 Nordeste 19 Norte 0 -- -- 71
2019-05-28 17:00:00 17.8 7 Nordeste 19 Noroeste 0 -- -- 71
2019-05-28 16:00:00 18 6 Oeste 21 Norte 0 -- -- 71
2019-05-28 15:00:00 17.8 10 Oeste 25 Oeste 0 -- -- 70
2019-05-28 14:00:00 17.6 6 Norte 18 Norte 0 -- -- 75
2019-05-28 13:00:00 16.5 4 Sudoeste 23 Oeste 0 -- -- 75
2019-05-28 12:00:00 15.7 7 Oeste 20 Oeste 0 -- -- 80
2019-05-28 11:00:00 15 9 Oeste 21 Sudoeste 0 -- -- 80
2019-05-28 10:00:00 14.1 10 Sudoeste 16 Sudoeste 0 -- -- 85
2019-05-28 09:00:00 13 9 Oeste 21 Oeste 0 -- -- 88
2019-05-28 08:00:00 12.1 8 Oeste 17 Sudoeste 0 -- -- 93
2019-05-28 07:00:00 11 7 Sudoeste 15 Oeste 0 -- -- 95
2019-05-28 06:00:00 10.3 7 Sudoeste 13 Sudoeste 0 -- -- 97
2019-05-28 05:00:00 10.8 6 Oeste 12 Oeste 0 -- -- 97
2019-05-28 04:00:00 11 9 Sudoeste 14 Sudoeste 0 -- -- 97
2019-05-28 03:00:00 11.2 7 Oeste 13 Oeste 0 -- -- 97
2019-05-28 02:00:00 11.8 7 Oeste 13 Oeste 0 -- -- 96
2019-05-28 01:00:00 12.3 5 Oeste 9 Oeste 0 -- -- 96
2019-05-28 00:00:00 12.4 4 Oeste 9 Sudoeste 0 -- -- 93
2019-05-27 23:00:00 13.9 5 Sudoeste 10 Sudoeste 0 -- -- 90
2019-05-27 22:00:00 14.3 5 Oeste 13 Oeste 0 -- -- 88
2019-05-27 21:00:00 14.9 3 Oeste 13 Oeste 0 -- -- 86
2019-05-27 20:00:00 15.5 3 Oeste 12 Oeste 0 -- -- 85
2019-05-27 19:00:00 15.4 3 Sudoeste 10 Sur 0 -- -- 87
2019-05-27 18:00:00 15.2 4 Nordeste 14 Nordeste 0 -- -- 91
2019-05-27 17:00:00 15 4 Norte 15 Nordeste 0 -- -- 95
2019-05-27 16:00:00 15.8 3 Este 9 Norte 0.4 -- -- 96
2019-05-27 15:00:00 15.8 4 Sur 16 Oeste 0.4 -- -- 96
2019-05-27 14:00:00 15.7 5 Sudoeste 15 Sudoeste 0.2 -- -- 97
2019-05-27 13:00:00 15.9 6 Oeste 16 Sudoeste 0.4 -- -- 98
2019-05-27 12:00:00 15.4 6 Oeste 14 Sudoeste 0.6 -- -- 99
2019-05-27 11:00:00 15.1 6 Oeste 12 Sudoeste 0.4 -- -- 98
2019-05-27 10:00:00 14.4 4 Oeste 11 Oeste 0.6 -- -- 97
2019-05-27 09:00:00 13.7 4 Sur 10 Oeste 0 -- -- 95
2019-05-27 08:00:00 13.3 7 Oeste 15 Oeste 0 -- -- 93
2019-05-27 07:00:00 13.5 6 Oeste 13 Oeste 0 -- -- 90
2019-05-27 06:00:00 13.3 6 Oeste 11 Oeste 0 -- -- 91
2019-05-27 05:00:00 13.2 4 Oeste 9 Oeste 0 -- -- 92
2019-05-27 04:00:00 13.1 5 Oeste 10 Oeste 0 -- -- 93
2019-05-27 03:00:00 12.6 6 Sudoeste 8 Oeste 0 -- -- 95
2019-05-27 02:00:00 12.7 5 Sudoeste 7 Sudoeste 0 -- -- 93
2019-05-27 01:00:00 13.7 3 Oeste 8 Oeste 0 -- -- 88
2019-05-27 00:00:00 14.3 3 Oeste 8 Sudoeste 0 -- -- 87
2019-05-26 23:00:00 14.5 5 Sudoeste 12 Sudoeste 0 -- -- 85
2019-05-26 22:00:00 14.7 2 Sudoeste 5 Norte 0 -- -- 87
2019-05-26 21:00:00 15 2 Noroeste 6 Nordeste 0 -- -- 86
2019-05-26 20:00:00 15.2 3 Norte 9 Oeste 0 -- -- 86
2019-05-26 19:00:00 15.1 5 Norte 11 Nordeste 0 -- -- 88
2019-05-26 18:00:00 15.4 7 Nordeste 14 Nordeste 0 -- -- 87
2019-05-26 17:00:00 16.1 8 Nordeste 19 Norte 0 -- -- 83
2019-05-26 16:00:00 17.4 10 Nordeste 21 Oeste 0 -- -- 77
2019-05-26 15:00:00 16.9 5 Norte 18 Nordeste 0 -- -- 82
2019-05-26 14:00:00 16.2 8 Norte 18 Noroeste 0 -- -- 81
2019-05-26 13:00:00 15.8 7 Norte 19 Oeste 0 -- -- 83
2019-05-26 12:00:00 16 7 Norte 12 Norte 0 -- -- 79
2019-05-26 11:00:00 17 5 Sudoeste 16 Sudoeste 0 -- -- 74
2019-05-26 10:00:00 15.5 10 Sudoeste 21 Oeste 0 -- -- 80
2019-05-26 09:00:00 13.7 8 Oeste 15 Sudoeste 0 -- -- 92
2019-05-26 08:00:00 11.2 8 Oeste 14 Sudoeste 0 -- -- 96
2019-05-26 07:00:00 10.7 6 Oeste 14 Oeste 0 -- -- 96
2019-05-26 06:00:00 11 9 Oeste 14 Oeste 0 -- -- 95
2019-05-26 05:00:00 11.4 9 Oeste 14 Oeste 0 -- -- 95
2019-05-26 04:00:00 11.9 8 Oeste 12 Oeste 0 -- -- 95
2019-05-26 03:00:00 12.5 6 Oeste 9 Oeste 0 -- -- 93
2019-05-26 02:00:00 13.1 5 Oeste 8 Sudoeste 0 -- -- 93
2019-05-26 01:00:00 13.2 5 Sudoeste 10 Oeste 0 -- -- 93
2019-05-26 00:00:00 12.9 5 Oeste 8 Oeste 0 -- -- 95
2019-05-25 23:00:00 12 4 Noroeste 5 Noroeste 0 -- -- 94
2019-05-25 22:00:00 13.2 2 Noroeste 5 Noroeste 0 -- -- 91
2019-05-25 21:00:00 15 3 Norte 6 Norte 0 -- -- 81
2019-05-25 20:00:00 16.3 4 Norte 8 Norte 0 -- -- 77
2019-05-25 19:00:00 16.6 5 Norte 12 Nordeste 0 -- -- 76
2019-05-25 18:00:00 16.6 7 Nordeste 11 Nordeste 0 -- -- 77
2019-05-25 17:00:00 16.7 6 Este 12 Nordeste 0 -- -- 78
2019-05-25 16:00:00 16.7 7 Norte 14 Norte 0 -- -- 82
2019-05-25 15:00:00 16 10 Norte 18 Norte 0 -- -- 83
2019-05-25 14:00:00 16.5 9 Norte 14 Norte 0 -- -- 82
2019-05-25 13:00:00 15.4 5 Norte 13 Norte 0 -- -- 81
2019-05-25 12:00:00 15.4 4 Norte 8 Nordeste 0 -- -- 85
2019-05-25 11:00:00 14.7 3 Sudoeste 8 Sudoeste 0 -- -- 91
2019-05-25 10:00:00 14 5 Sudoeste 9 Oeste 0 -- -- 93
2019-05-25 09:00:00 13.5 4 Oeste 10 Oeste 0 -- -- 94
2019-05-25 08:00:00 13.1 5 Oeste 9 Oeste 0 -- -- 95
2019-05-25 07:00:00 13.2 5 Sudoeste 12 Oeste 0 -- -- 95
2019-05-25 06:00:00 13 6 Oeste 10 Oeste 0 -- -- 96
2019-05-25 05:00:00 13.2 5 Oeste 9 Oeste 0 -- -- 97
2019-05-25 04:00:00 13.3 3 Oeste 8 Sudoeste 0 -- -- 96
2019-05-25 03:00:00 13.7 4 Oeste 7 Oeste 0 -- -- 97
2019-05-25 02:00:00 13.8 3 Sudoeste 6 Sudoeste 0 -- -- 96
2019-05-25 01:00:00 13.9 0 Calma 6 Sudoeste 0 -- -- 95
2019-05-25 00:00:00 14 5 Oeste 12 Oeste 0.2 -- -- 93
2019-05-24 23:00:00 13.6 5 Sudoeste 11 Sudoeste 0 -- -- 94
2019-05-24 22:00:00 13.4 3 Oeste 8 Oeste 0 -- -- 90
2019-05-24 21:00:00 15 4 Oeste 13 Oeste 0 -- -- 85
2019-05-24 20:00:00 16 8 Noroeste 14 Nordeste 0 -- -- 85
2019-05-24 19:00:00 16.3 9 Norte 16 Norte 0 -- -- 81
2019-05-24 18:00:00 15.9 9 Norte 20 Norte 0 -- -- 81
2019-05-24 17:00:00 16.3 12 Norte 22 Nordeste 0 -- -- 82
2019-05-24 16:00:00 16.3 14 Nordeste 27 Norte 0 -- -- 82
2019-05-24 15:00:00 17.1 12 Norte 22 Nordeste 0 -- -- 76
2019-05-24 14:00:00 17.8 8 Noroeste 24 Noroeste 0 -- -- 72
2019-05-24 13:00:00 16.6 11 Oeste 22 Oeste 0 -- -- 77
2019-05-24 12:00:00 15.9 9 Oeste 19 Sudoeste 0 -- -- 71
2019-05-24 11:00:00 15.7 7 Oeste 17 Sudoeste 0 -- -- 79
2019-05-24 10:00:00 14.6 7 Oeste 13 Sudoeste 0 -- -- 81
2019-05-24 09:00:00 13.3 6 Sudoeste 12 Oeste 0 -- -- 87
2019-05-24 08:00:00 12.3 4 Sudoeste 11 Oeste 0 -- -- 89
2019-05-24 07:00:00 12.2 5 Sudoeste 12 Oeste 0 -- -- 89
2019-05-24 06:00:00 12.1 5 Oeste 9 Sudoeste 0 -- -- 89
2019-05-24 05:00:00 13 5 Oeste 10 Sudoeste 0 -- -- 86
2019-05-24 04:00:00 13.2 5 Sudoeste 17 Oeste 0 -- -- 83
2019-05-24 03:00:00 12.8 7 Oeste 15 Oeste 0 -- -- 84
2019-05-24 02:00:00 13.3 9 Sudoeste 14 Oeste 0 -- -- 86
2019-05-24 01:00:00 13.3 5 Oeste 13 Noroeste 0 -- -- 88
2019-05-24 00:00:00 13.3 8 Oeste 14 Oeste 0 -- -- 93
2019-05-23 23:00:00 13.3 8 Oeste 13 Oeste 0 -- -- 95
2019-05-23 22:00:00 13.8 9 Sudoeste 24 Sudoeste 0 -- -- 90
2019-05-23 21:00:00 14.3 14 Sudoeste 27 Sudoeste 0 -- -- 87
2019-05-23 20:00:00 15 7 Oeste 22 Oeste 0 -- -- 86
2019-05-23 19:00:00 15.3 9 Oeste 19 Oeste 0 -- -- 83
2019-05-23 18:00:00 15.4 8 Oeste 18 Oeste 0 -- -- 85
2019-05-23 17:00:00 16.2 8 Noroeste 22 Oeste 0 -- -- 84
2019-05-23 16:00:00 16.8 11 Nordeste 20 Nordeste 0 -- -- 84
2019-05-23 15:00:00 16.6 14 Nordeste 19 Norte 0 -- -- 86
2019-05-23 14:00:00 17.8 12 Norte 21 Norte 0 -- -- 81
2019-05-23 13:00:00 17.6 9 Norte 20 Norte 0 -- -- 80
2019-05-23 12:00:00 18.6 4 Oeste 16 Oeste 0 -- -- 72
2019-05-23 11:00:00 17 8 Sudoeste 14 Sudoeste 0 -- -- 75
2019-05-23 10:00:00 15.6 7 Oeste 15 Oeste 0 -- -- 76
2019-05-23 09:00:00 14.7 5 Sudoeste 15 Oeste 0 -- -- 79
2019-05-23 08:00:00 13.9 6 Oeste 15 Oeste 0 -- -- 80
2019-05-23 07:00:00 13.5 9 Oeste 19 Oeste 0 -- -- 88
2019-05-23 06:00:00 13.1 9 Oeste 15 Oeste 0 -- -- 97
2019-05-23 05:00:00 11.6 2 Oeste 7 Sudoeste 0 -- -- 100
2019-05-23 04:00:00 12 3 Sudoeste 7 Sudoeste 0 -- -- 99
2019-05-23 03:00:00 12.8 7 Sudoeste 10 Sudoeste 0 -- -- 99
2019-05-23 02:00:00 12.2 6 Sudoeste 9 Oeste 0 -- -- 99
2019-05-23 01:00:00 12.4 5 Sudoeste 7 Sudoeste 0 -- -- 99
2019-05-23 00:00:00 12.4 0 Calma 5 Oeste 0 -- -- 97
2019-05-22 23:00:00 13.7 3 Noroeste 6 Nordeste 0 -- -- 96
2019-05-22 22:00:00 14.4 3 Nordeste 9 Nordeste 0 -- -- 95
2019-05-22 21:00:00 15.4 4 Nordeste 9 Nordeste 0 -- -- 89
2019-05-22 20:00:00 16.9 5 Nordeste 14 Este 0 -- -- 85
2019-05-22 19:00:00 16.8 6 Nordeste 13 Nordeste 0 -- -- 87
2019-05-22 18:00:00 17.2 6 Nordeste 12 Nordeste 0 -- -- 85
2019-05-22 17:00:00 16.6 6 Norte 14 Nordeste 0 -- -- 87
2019-05-22 16:00:00 16.9 9 Nordeste 16 Nordeste 0 -- -- 86
2019-05-22 15:00:00 16.7 9 Nordeste 17 Este 0 -- -- 85
2019-05-22 14:00:00 16.4 10 Nordeste 15 Este 0 -- -- 82
2019-05-22 13:00:00 15.8 10 Nordeste 15 Nordeste 0 -- -- 83
2019-05-22 12:00:00 15.8 8 Nordeste 17 Nordeste 0 -- -- 85
2019-05-22 11:00:00 14.7 9 Nordeste 15 Nordeste 0 -- -- 89
2019-05-22 10:00:00 13.8 5 Nordeste 12 Nordeste 0 -- -- 96
2019-05-22 09:00:00 12.3 3 Sudoeste 8 Sudoeste 0 -- -- 100
2019-05-22 08:00:00 10.1 8 Sudoeste 12 Sudoeste 0 -- -- 100
2019-05-22 07:00:00 8.3 0 Calma 4 Oeste 0 -- -- 99
2019-05-22 06:00:00 9 0 Calma 6 Oeste 0 -- -- 98
2019-05-22 05:00:00 9.2 0 Calma 8 Sudoeste 0 -- -- 97
2019-05-22 04:00:00 10.2 0 Calma 15 Este 0 -- -- 95
2019-05-22 03:00:00 12.2 8 Este 16 Este 0 -- -- 95
2019-05-22 02:00:00 12.5 9 Este 18 Este 0 -- -- 95
2019-05-22 01:00:00 12.5 6 Este 14 Este 0 -- -- 95
2019-05-22 00:00:00 12.7 8 Este 18 Este 0 -- -- 94